createdAt,value
2022-10-19T00:00:35.889Z,13.30
2022-10-19T00:03:25.488Z,13.22
2022-10-19T00:05:55.043Z,13.20
2022-10-19T00:08:24.658Z,13.10
2022-10-19T00:10:54.187Z,13.00
2022-10-19T00:13:23.756Z,13.00
2022-10-19T00:15:53.298Z,12.90
2022-10-19T00:18:23.111Z,12.90
2022-10-19T00:20:52.644Z,12.88
2022-10-19T00:23:22.333Z,12.80
2022-10-19T00:25:58.471Z,12.80
2022-10-19T00:28:28.553Z,12.70
2022-10-19T00:31:01.654Z,12.70
2022-10-19T00:33:31.214Z,12.60
2022-10-19T00:36:01.142Z,12.60
2022-10-19T00:38:31.028Z,12.50
2022-10-19T00:41:02.024Z,12.48
2022-10-19T00:43:32.422Z,12.40
2022-10-19T00:46:01.988Z,12.32
2022-10-19T00:48:33.915Z,12.30
2022-10-19T00:51:03.643Z,12.20
2022-10-19T00:53:33.463Z,12.20
2022-10-19T00:56:09.720Z,12.14
2022-10-19T00:58:40.658Z,12.12
2022-10-19T01:01:14.073Z,12.14
2022-10-19T01:03:44.273Z,12.14
2022-10-19T01:06:17.697Z,12.10
2022-10-19T01:08:47.494Z,12.10
2022-10-19T01:11:49.461Z,12.12
2022-10-19T01:14:42.718Z,12.18
2022-10-19T01:17:24.414Z,12.20
2022-10-19T01:20:45.218Z,12.14
2022-10-19T01:23:55.710Z,12.10
2022-10-19T01:26:57.996Z,12.10
2022-10-19T01:30:04.420Z,12.08
2022-10-19T01:32:49.802Z,12.10
2022-10-19T01:35:27.690Z,12.10
2022-10-19T01:38:14.136Z,12.12
2022-10-19T01:40:54.047Z,12.20
2022-10-19T01:43:36.817Z,12.30
2022-10-19T01:46:13.066Z,12.30
2022-10-19T01:48:54.334Z,12.40
2022-10-19T01:51:30.705Z,12.40
2022-10-19T01:54:09.407Z,12.40
2022-10-19T01:56:42.650Z,12.50
2022-10-19T01:59:15.322Z,12.50
2022-10-19T02:01:48.941Z,12.60
2022-10-19T02:04:22.776Z,12.60
2022-10-19T02:06:53.719Z,12.70
2022-10-19T02:09:23.550Z,12.70
2022-10-19T02:11:58.222Z,12.78
2022-10-19T02:14:34.684Z,12.80
2022-10-19T02:17:07.925Z,12.90
2022-10-19T02:19:37.951Z,12.90
2022-10-19T02:22:08.465Z,12.90
2022-10-19T02:24:38.220Z,12.82
2022-10-19T02:27:09.445Z,12.80
2022-10-19T02:29:39.625Z,12.88
2022-10-19T02:32:10.155Z,12.90
2022-10-19T02:34:41.123Z,12.90
2022-10-19T02:37:11.066Z,12.90
2022-10-19T02:39:40.921Z,12.90
2022-10-19T02:42:15.902Z,12.90
2022-10-19T02:44:56.070Z,12.90
2022-10-19T02:47:31.555Z,12.90
2022-10-19T02:50:04.343Z,12.90
2022-10-19T02:52:36.244Z,12.98
2022-10-19T02:55:08.076Z,12.96
2022-10-19T02:57:37.763Z,12.90
2022-10-19T03:00:11.277Z,12.90
2022-10-19T03:02:40.914Z,12.94
2022-10-19T03:05:11.770Z,13.00
2022-10-19T03:07:41.773Z,12.92
2022-10-19T03:10:11.641Z,12.90
2022-10-19T03:12:41.098Z,12.80
2022-10-19T03:15:16.322Z,12.70
2022-10-19T03:17:46.256Z,12.70
2022-10-19T03:20:16.388Z,12.60
2022-10-19T03:22:45.954Z,12.54
2022-10-19T03:25:15.978Z,12.50
2022-10-19T03:27:45.492Z,12.40
2022-10-19T03:30:16.006Z,12.30
2022-10-19T03:32:45.787Z,12.30
2022-10-19T03:35:15.743Z,12.20
2022-10-19T03:37:45.342Z,12.20
2022-10-19T03:40:15.310Z,12.10
2022-10-19T03:42:44.842Z,12.10
2022-10-19T03:45:14.920Z,12.06
2022-10-19T03:47:48.550Z,12.00
2022-10-19T03:50:19.966Z,12.00
2022-10-19T03:52:49.844Z,11.92
2022-10-19T03:55:19.702Z,11.90
2022-10-19T03:57:49.387Z,11.90
2022-10-19T04:00:19.592Z,11.80
2022-10-19T04:02:49.127Z,11.80
2022-10-19T04:05:18.873Z,11.80
2022-10-19T04:07:48.332Z,11.80
2022-10-19T04:10:18.141Z,11.84
2022-10-19T04:12:51.645Z,11.88
2022-10-19T04:15:23.449Z,11.90
2022-10-19T04:17:53.060Z,11.90
2022-10-19T04:20:22.575Z,11.90
2022-10-19T04:22:53.975Z,11.90
2022-10-19T04:25:23.604Z,11.90
2022-10-19T04:27:53.163Z,11.90
2022-10-19T04:30:22.740Z,12.00
2022-10-19T04:32:52.343Z,12.00
2022-10-19T04:35:22.130Z,12.00
2022-10-19T04:37:51.817Z,12.00
2022-10-19T04:40:21.546Z,12.00
2022-10-19T04:42:51.137Z,12.00
2022-10-19T04:45:20.828Z,11.96
2022-10-19T04:47:50.984Z,11.94
2022-10-19T04:50:20.699Z,11.90
2022-10-19T04:52:58.427Z,11.90
2022-10-19T04:55:28.971Z,11.90
2022-10-19T04:57:58.984Z,11.90
2022-10-19T05:00:29.021Z,11.90
2022-10-19T05:02:58.937Z,11.80
2022-10-19T05:05:29.143Z,11.80
2022-10-19T05:07:58.958Z,11.80
2022-10-19T05:10:29.416Z,11.80
2022-10-19T05:13:01.787Z,11.80
2022-10-19T05:15:31.874Z,11.78
2022-10-19T05:18:01.891Z,11.80
2022-10-19T05:20:31.717Z,11.80
2022-10-19T05:23:06.167Z,11.80
2022-10-19T05:25:36.993Z,11.80
2022-10-19T05:28:06.572Z,11.80
2022-10-19T05:30:36.739Z,11.80
2022-10-19T05:33:06.448Z,11.80
2022-10-19T05:35:36.116Z,11.80
2022-10-19T05:38:06.043Z,11.80
2022-10-19T05:40:35.643Z,11.80
2022-10-19T05:43:05.198Z,11.84
2022-10-19T05:45:35.293Z,11.90
2022-10-19T05:48:06.000Z,11.90
2022-10-19T05:50:35.519Z,11.90
2022-10-19T05:53:05.094Z,11.90
2022-10-19T05:55:36.611Z,11.90
2022-10-19T05:58:06.077Z,11.90
2022-10-19T06:00:35.678Z,11.90
2022-10-19T06:03:05.378Z,11.90
2022-10-19T06:05:37.750Z,11.90
2022-10-19T06:08:07.534Z,11.90
2022-10-19T06:10:37.161Z,11.90
2022-10-19T06:13:06.780Z,11.96
2022-10-19T06:15:39.507Z,12.00
2022-10-19T06:18:10.078Z,12.00
2022-10-19T06:20:41.848Z,12.00
2022-10-19T06:23:11.725Z,12.00
2022-10-19T06:25:42.272Z,12.04
2022-10-19T06:28:12.471Z,12.10
2022-10-19T06:30:42.875Z,12.10
2022-10-19T06:33:12.778Z,12.10
2022-10-19T06:35:42.648Z,12.10
2022-10-19T06:38:13.345Z,12.10
2022-10-19T06:40:43.737Z,12.10
2022-10-19T06:43:13.647Z,12.10
2022-10-19T06:45:43.344Z,12.10
2022-10-19T06:48:13.168Z,12.20
2022-10-19T06:50:42.991Z,12.18
2022-10-19T06:53:12.949Z,12.18
2022-10-19T06:55:42.801Z,12.20
2022-10-19T06:58:14.897Z,12.20
2022-10-19T07:00:44.676Z,12.24
2022-10-19T07:03:14.375Z,12.30
2022-10-19T07:05:52.092Z,12.40
2022-10-19T07:08:22.240Z,12.40
2022-10-19T07:10:54.773Z,12.40
2022-10-19T07:13:25.921Z,12.50
2022-10-19T07:16:06.076Z,12.50
2022-10-19T07:18:38.918Z,12.60
2022-10-19T07:21:12.822Z,12.70
2022-10-19T07:23:46.956Z,12.80
2022-10-19T07:26:22.749Z,12.90
2022-10-19T07:28:53.471Z,12.94
2022-10-19T07:31:25.413Z,12.92
2022-10-19T07:33:56.272Z,13.00
2022-10-19T07:36:28.240Z,13.10
2022-10-19T07:39:00.442Z,13.10
2022-10-19T07:41:34.535Z,13.20
2022-10-19T07:44:05.771Z,13.20
2022-10-19T07:46:36.596Z,13.30
2022-10-19T07:49:15.745Z,13.30
2022-10-19T07:51:45.897Z,13.30
2022-10-19T07:54:15.998Z,13.24
2022-10-19T07:56:45.913Z,13.30
2022-10-19T07:59:16.738Z,13.40
2022-10-19T08:01:48.301Z,13.42
2022-10-19T08:07:10.030Z,13.60
2022-10-19T08:09:52.842Z,13.60
2022-10-19T08:12:23.558Z,13.70
2022-10-19T08:14:56.978Z,13.80
2022-10-19T08:17:26.770Z,13.80
2022-10-19T08:19:56.527Z,13.90
2022-10-19T08:22:26.485Z,13.90
2022-10-19T08:24:56.226Z,13.92
2022-10-19T08:27:28.516Z,14.00
2022-10-19T08:29:58.916Z,14.00
2022-10-19T08:32:32.455Z,14.10
2022-10-19T08:35:05.982Z,14.10
2022-10-19T08:37:45.069Z,14.06
2022-10-19T08:40:21.258Z,14.10
2022-10-19T08:43:00.207Z,14.20
2022-10-19T08:48:28.476Z,14.64
2022-10-19T08:51:00.700Z,14.80
2022-10-19T08:53:45.563Z,14.88
2022-10-19T08:56:50.362Z,14.92
2022-10-19T08:59:41.983Z,15.10
2022-10-19T09:02:24.358Z,15.20
2022-10-19T09:05:03.248Z,15.30
2022-10-19T09:07:45.598Z,15.30
2022-10-19T09:10:25.558Z,15.30
2022-10-19T09:13:01.298Z,15.20
2022-10-19T09:15:42.301Z,15.20
2022-10-19T09:18:22.386Z,15.40
2022-10-19T09:21:04.083Z,15.60
2022-10-19T09:23:46.354Z,15.70
2022-10-19T09:26:23.510Z,15.70
2022-10-19T09:29:04.763Z,15.60
2022-10-19T09:31:43.181Z,15.50
2022-10-19T09:34:26.516Z,15.50
2022-10-19T09:37:16.746Z,15.50
2022-10-19T09:39:56.297Z,15.52
2022-10-19T09:42:34.347Z,15.60
2022-10-19T09:45:25.025Z,15.60
2022-10-19T09:48:08.711Z,15.66
2022-10-19T09:50:51.731Z,15.60
2022-10-19T09:53:24.094Z,15.60
2022-10-19T09:56:05.866Z,15.50
2022-10-19T09:58:51.559Z,15.68
2022-10-19T10:01:43.222Z,15.70
2022-10-19T10:04:37.428Z,15.80
2022-10-19T10:07:18.196Z,15.86
2022-10-19T10:09:53.688Z,15.90
2022-10-19T10:12:27.712Z,16.10
2022-10-19T10:14:59.153Z,16.10
2022-10-19T10:17:35.475Z,16.18
2022-10-19T10:20:23.625Z,16.10
2022-10-19T10:22:57.907Z,16.10
2022-10-19T10:25:34.652Z,16.20
2022-10-19T10:28:19.934Z,16.30
2022-10-19T10:30:55.269Z,16.40
2022-10-19T10:33:43.733Z,16.50
2022-10-19T10:36:15.286Z,16.60
2022-10-19T10:38:51.738Z,16.62
2022-10-19T10:41:24.547Z,16.70
2022-10-19T10:44:04.836Z,16.70
2022-10-19T10:46:42.001Z,16.58
2022-10-19T10:49:24.253Z,16.30
2022-10-19T10:51:57.673Z,16.10
2022-10-19T10:54:30.748Z,15.80
2022-10-19T10:57:27.164Z,15.60
2022-10-19T11:00:07.484Z,15.40
2022-10-19T11:02:46.627Z,15.30
2022-10-19T11:05:23.601Z,15.20
2022-10-19T11:08:01.309Z,15.10
2022-10-19T11:10:37.089Z,15.00
2022-10-19T11:13:16.600Z,14.90
2022-10-19T11:15:59.704Z,14.80
2022-10-19T11:18:37.994Z,14.80
2022-10-19T11:21:13.387Z,14.64
2022-10-19T11:24:07.826Z,14.60
2022-10-19T11:27:05.885Z,14.60
2022-10-19T11:30:02.591Z,14.70
2022-10-19T11:32:46.169Z,14.70
2022-10-19T11:35:36.459Z,14.80
2022-10-19T11:38:30.233Z,14.80
2022-10-19T11:41:21.654Z,14.80
2022-10-19T11:44:22.540Z,14.70
2022-10-19T11:47:15.566Z,14.62
2022-10-19T11:50:02.860Z,14.50
2022-10-19T11:52:46.849Z,14.60
2022-10-19T11:55:34.870Z,14.60
2022-10-19T11:58:33.709Z,14.70
2022-10-19T12:01:16.889Z,14.94
2022-10-19T12:04:14.980Z,15.20
2022-10-19T12:07:02.912Z,15.40
2022-10-19T12:10:07.940Z,15.40
2022-10-19T12:12:44.430Z,15.30
2022-10-19T12:15:37.895Z,15.16
2022-10-19T12:18:31.536Z,15.00
2022-10-19T12:21:10.933Z,14.90
2022-10-19T12:23:48.346Z,14.80
2022-10-19T12:26:23.593Z,14.80
2022-10-19T12:29:02.902Z,14.90
2022-10-19T12:31:36.892Z,14.90
2022-10-19T12:34:21.903Z,15.00
2022-10-19T12:37:03.494Z,15.00
2022-10-19T12:39:46.862Z,15.00
2022-10-19T12:42:31.839Z,14.90
2022-10-19T12:45:25.174Z,14.90
2022-10-19T12:48:24.866Z,14.80
2022-10-19T12:51:18.924Z,14.80
2022-10-19T13:01:48.959Z,14.60
2022-10-19T13:04:28.105Z,14.54
2022-10-19T13:07:10.585Z,14.42
2022-10-19T13:09:50.175Z,14.40
2022-10-19T13:12:47.628Z,14.40
2022-10-19T13:15:59.219Z,14.30
2022-10-19T13:19:25.127Z,14.20
2022-10-19T13:22:31.554Z,14.00
2022-10-19T13:25:37.654Z,13.90
2022-10-19T13:28:55.140Z,13.92
2022-10-19T13:31:34.525Z,14.00
2022-10-19T13:34:18.143Z,14.16
2022-10-19T13:37:06.021Z,14.44
2022-10-19T13:39:43.330Z,14.82
2022-10-19T13:42:30.052Z,15.12
2022-10-19T13:45:03.855Z,15.20
2022-10-19T13:47:47.663Z,15.10
2022-10-19T13:50:36.215Z,15.04
2022-10-19T13:53:27.805Z,15.10
2022-10-19T13:56:21.447Z,15.12
2022-10-19T13:59:42.897Z,15.20
2022-10-19T14:02:57.069Z,15.30
2022-10-19T14:06:05.597Z,15.30
2022-10-19T14:09:26.989Z,15.30
2022-10-19T14:12:08.606Z,15.60
2022-10-19T14:14:47.118Z,15.76
2022-10-19T14:17:25.544Z,17.08
2022-10-19T14:20:01.726Z,17.10
2022-10-19T14:22:40.839Z,17.16
2022-10-19T14:25:25.142Z,17.06
2022-10-19T14:28:06.718Z,17.10
2022-10-19T14:30:45.572Z,16.80
2022-10-19T14:33:21.935Z,16.50
2022-10-19T14:35:57.165Z,16.54
2022-10-19T14:38:37.147Z,16.26
2022-10-19T14:41:32.342Z,15.80
2022-10-19T14:44:40.967Z,15.34
2022-10-19T14:47:27.326Z,15.10
2022-10-19T14:50:01.756Z,14.90
2022-10-19T14:52:41.544Z,14.80
2022-10-19T14:55:22.782Z,14.60
2022-10-19T14:57:58.529Z,14.50
2022-10-19T15:00:35.489Z,14.40
2022-10-19T15:03:18.223Z,14.36
2022-10-19T15:06:01.277Z,14.30
2022-10-19T15:08:44.069Z,14.20
2022-10-19T15:11:31.344Z,14.10
2022-10-19T15:14:15.012Z,14.08
2022-10-19T15:16:55.116Z,14.00
2022-10-19T15:19:35.039Z,14.00
2022-10-19T15:22:18.926Z,13.90
2022-10-19T15:25:21.750Z,13.84
2022-10-19T15:27:57.762Z,13.80
2022-10-19T15:30:35.814Z,13.70
2022-10-19T15:33:19.027Z,13.62
2022-10-19T15:35:53.253Z,13.60
2022-10-19T15:38:32.462Z,13.50
2022-10-19T15:41:08.375Z,13.48
2022-10-19T15:43:49.773Z,13.40
2022-10-19T15:46:33.272Z,13.30
2022-10-19T15:49:44.501Z,13.26
2022-10-19T15:52:25.930Z,13.20
2022-10-19T15:55:02.019Z,13.10
2022-10-19T15:57:39.919Z,13.10
2022-10-19T16:00:20.403Z,13.08
2022-10-19T16:02:54.110Z,13.00
2022-10-19T16:05:28.437Z,13.00
2022-10-19T16:08:02.859Z,13.00
2022-10-19T16:10:36.970Z,13.00
2022-10-19T16:13:10.767Z,13.00
2022-10-19T16:15:49.982Z,12.94
2022-10-19T16:18:30.662Z,12.90
2022-10-19T16:21:05.673Z,12.80
2022-10-19T16:23:41.990Z,12.80
2022-10-19T16:26:18.559Z,12.72
2022-10-19T16:28:53.180Z,12.70
2022-10-19T16:31:28.618Z,12.68
2022-10-19T16:34:02.824Z,12.60
2022-10-19T16:36:37.119Z,12.60
2022-10-19T16:39:10.966Z,12.50
2022-10-19T16:41:44.781Z,12.40
2022-10-19T16:44:20.665Z,12.40
2022-10-19T16:46:54.272Z,12.30
2022-10-19T16:49:28.571Z,12.30
2022-10-19T16:52:02.873Z,12.20
2022-10-19T16:54:37.142Z,12.20
2022-10-19T16:57:10.927Z,12.20
2022-10-19T16:59:44.907Z,12.10
2022-10-19T17:02:19.603Z,12.10
2022-10-19T17:04:53.537Z,12.10
2022-10-19T17:07:27.668Z,12.00
2022-10-19T17:10:01.586Z,11.90
2022-10-19T17:12:35.639Z,11.80
2022-10-19T17:18:07.638Z,11.70
2022-10-19T17:20:41.603Z,11.60
2022-10-19T17:23:15.342Z,11.54
2022-10-19T17:25:52.875Z,11.50
2022-10-19T17:28:27.794Z,11.40
2022-10-19T17:31:06.305Z,11.30
2022-10-19T17:33:41.299Z,11.16
2022-10-19T17:36:19.003Z,11.10
2022-10-19T17:38:53.222Z,11.00
2022-10-19T17:41:27.984Z,10.90
2022-10-19T17:44:03.863Z,10.80
2022-10-19T17:46:39.191Z,10.62
2022-10-19T17:49:13.608Z,10.50
2022-10-19T17:51:47.830Z,10.50
2022-10-19T17:54:21.935Z,10.40
2022-10-19T17:56:56.362Z,10.30
2022-10-19T17:59:46.602Z,10.20
2022-10-19T18:02:25.043Z,10.20
2022-10-19T18:04:59.169Z,10.00
2022-10-19T18:07:33.643Z,9.98
2022-10-19T18:10:09.062Z,9.90
2022-10-19T18:12:43.250Z,9.80
2022-10-19T18:15:16.945Z,9.78
2022-10-19T18:17:50.778Z,9.66
2022-10-19T18:20:24.800Z,9.50
2022-10-19T18:22:58.472Z,9.50
2022-10-19T18:25:52.936Z,9.40
2022-10-19T18:28:25.877Z,9.30
2022-10-19T18:31:04.991Z,9.20
2022-10-19T18:33:39.437Z,9.06
2022-10-19T18:36:14.883Z,9.00
2022-10-19T18:38:52.797Z,8.92
2022-10-19T18:41:27.811Z,8.90
2022-10-19T18:44:05.231Z,8.88
2022-10-19T18:46:41.730Z,8.80
2022-10-19T18:49:16.426Z,8.80
2022-10-19T18:51:55.092Z,8.70
2022-10-19T18:54:30.468Z,8.60
2022-10-19T18:57:04.159Z,8.60
2022-10-19T18:59:37.942Z,8.50
2022-10-19T19:02:22.340Z,8.50
2022-10-19T19:04:58.410Z,8.50
2022-10-19T19:07:32.705Z,8.40
2022-10-19T19:10:07.432Z,8.40
2022-10-19T19:12:41.670Z,8.40
2022-10-19T19:15:16.728Z,8.30
2022-10-19T19:17:50.626Z,8.30
2022-10-19T19:20:25.000Z,8.20
2022-10-19T19:22:58.969Z,8.10
2022-10-19T19:25:32.951Z,8.00
2022-10-19T19:28:06.686Z,7.90
2022-10-19T19:30:45.643Z,7.80
2022-10-19T19:33:19.887Z,7.78
2022-10-19T19:35:53.609Z,7.70
2022-10-19T19:38:27.883Z,7.70
2022-10-19T19:41:04.851Z,7.70
2022-10-19T19:43:40.350Z,7.70
2022-10-19T19:46:17.964Z,7.70
2022-10-19T19:48:52.305Z,7.70
2022-10-19T19:51:26.689Z,7.64
2022-10-19T19:54:01.217Z,7.60
2022-10-19T19:56:37.328Z,7.60
2022-10-19T19:59:13.749Z,7.60
2022-10-19T20:01:47.867Z,7.50
2022-10-19T20:04:21.730Z,7.50
2022-10-19T20:06:55.624Z,7.40
2022-10-19T20:09:31.404Z,7.30
2022-10-19T20:12:05.134Z,7.28
2022-10-19T20:14:38.975Z,7.20
2022-10-19T20:17:13.091Z,7.20
2022-10-19T20:19:47.273Z,7.20
2022-10-19T20:22:21.790Z,7.10
2022-10-19T20:24:55.562Z,7.10
2022-10-19T20:27:29.601Z,7.10
2022-10-19T20:30:03.448Z,7.00
2022-10-19T20:32:37.920Z,6.96
2022-10-19T20:35:13.023Z,6.94
2022-10-19T20:37:51.353Z,6.90
2022-10-19T20:40:25.619Z,6.90
2022-10-19T20:42:59.302Z,6.90
2022-10-19T20:45:33.123Z,6.90
2022-10-19T20:48:07.391Z,6.80
2022-10-19T20:50:41.407Z,6.74
2022-10-19T20:53:15.131Z,6.70
2022-10-19T20:55:48.983Z,6.70
2022-10-19T20:58:22.932Z,6.70
2022-10-19T21:00:56.782Z,6.70
2022-10-19T21:03:31.374Z,6.70
2022-10-19T21:06:10.376Z,6.64
2022-10-19T21:08:44.671Z,6.60
2022-10-19T21:11:22.249Z,6.60
2022-10-19T21:14:01.802Z,6.60
2022-10-19T21:16:37.846Z,6.60
2022-10-19T21:19:15.616Z,6.60
2022-10-19T21:21:53.488Z,6.56
2022-10-19T21:24:32.280Z,6.50
2022-10-19T21:27:09.319Z,6.50
2022-10-19T21:29:43.707Z,6.40
2022-10-19T21:32:18.467Z,6.40
2022-10-19T21:34:53.790Z,6.32
2022-10-19T21:37:31.580Z,6.30
2022-10-19T21:40:05.643Z,6.30
2022-10-19T21:42:39.454Z,6.30
2022-10-19T21:45:29.886Z,6.20
2022-10-19T21:48:04.628Z,6.20
2022-10-19T21:50:38.491Z,6.20
2022-10-19T21:53:12.324Z,6.12
2022-10-19T21:55:46.191Z,6.10
2022-10-19T21:58:22.359Z,6.10
2022-10-19T22:00:56.101Z,6.10
2022-10-19T22:03:29.816Z,6.10
2022-10-19T22:06:04.056Z,6.00
2022-10-19T22:08:38.578Z,6.00
2022-10-19T22:11:14.981Z,6.00
2022-10-19T22:13:49.131Z,6.00
2022-10-19T22:16:24.994Z,5.90
2022-10-19T22:18:59.460Z,5.90
2022-10-19T22:21:35.667Z,5.82
2022-10-19T22:24:14.305Z,5.80
2022-10-19T22:26:51.932Z,5.72
2022-10-19T22:29:25.400Z,5.70
2022-10-19T22:31:59.056Z,5.62
2022-10-19T22:34:33.319Z,5.60
2022-10-19T22:37:06.951Z,5.50
2022-10-19T22:42:15.107Z,5.36
2022-10-19T22:44:48.580Z,5.30
2022-10-19T22:47:22.374Z,5.20
2022-10-19T22:49:56.533Z,5.20
2022-10-19T22:52:30.180Z,5.10
2022-10-19T22:55:03.652Z,5.10
2022-10-19T22:57:37.185Z,5.10
2022-10-19T23:00:14.879Z,5.10
2022-10-19T23:02:48.462Z,5.10
2022-10-19T23:05:22.252Z,5.20
2022-10-19T23:07:55.991Z,5.20
2022-10-19T23:10:30.177Z,5.12
2022-10-19T23:13:03.808Z,5.10
2022-10-19T23:15:41.649Z,5.12
2022-10-19T23:18:17.701Z,5.10
2022-10-19T23:21:00.274Z,5.10
2022-10-19T23:23:37.053Z,5.10
2022-10-19T23:26:13.651Z,5.10
2022-10-19T23:28:50.430Z,5.10
2022-10-19T23:31:28.431Z,5.10
2022-10-19T23:34:02.215Z,5.10
2022-10-19T23:36:36.102Z,5.06
2022-10-19T23:39:09.825Z,5.10
2022-10-19T23:41:43.301Z,5.10
2022-10-19T23:44:17.115Z,5.10
2022-10-19T23:46:50.974Z,5.10
2022-10-19T23:49:24.774Z,5.00
2022-10-19T23:51:58.341Z,4.90
2022-10-19T23:54:31.984Z,4.90
2022-10-19T23:57:05.750Z,4.80
2022-10-19T23:59:39.363Z,4.80
